Alexandria International Airport
KAEX : now visible

Airfield :











YOU CAN JOIN US ON...

 
LOGIN :

Register | Disclaimer

   EN    FR    IT 

 









Legend :    VFR   Marginal VFR   IFR   Intensive IFR   Very Intensive IFR
Visi :
Ceiling :
>= 8 km
>= 3000ft
5 to 8 km
1000 to 3000 ft
1500m to 5 km
500 to 1000 ft
800 to 1500m
200 to 500 ft
< 800m
< 200 ft
Symbols :   Thunderstorms  Fog  Heavy snow  Heavy precipitations  Wind > 20 kt






- Airport Elevation : 89 ft
- IATA code : AEX


KAEX - Alexandria International

CURRENT METAR :
  • 082053Z 17006KT 10SM CLR 17/11 A2999 RMK AO2 SLP160 T01670106 58035

EXPIRED METARs :
  • 081953Z VRB03KT 9SM FEW020 16/11 A3003 RMK AO2 SLP171 T01560106
  • 081916Z 00000KT 8SM SCT016 14/10 A3005 RMK AO2 T01390100
  • 081853Z VRB04KT 7SM OVC013 13/09 A3007 RMK AO2 SLP187 T01330094

TAF KAEX
Valid from the 08 at 19:00 until the 09 at 18:00 UTC


081908Z 0819/0918 14005KT P6SM BKN015
FM082100 17005KT P6SM SCT025
FM090700 17005KT P6SM OVC030
FM090900 17005KT P6SM OVC010
FM091500 20005KT P6SM OVC015



MET'MAP, your aeronautical weather chart ! - Copyright ORBIFLY December 2007 - Disclaimer

ORBIFLY MET'MAP TEAM :

Programming & Development : Alexandra Zaïnal
Concept & original design : Baudouin d'Aumeries
Assistance for programming : Marc-Olivier Méhu
Technical & hardware support : Manuel Goepfert

Contact : metmap@orbifly.com




SOURCES & CREDITS :

   NOAA       Earth
Advisory